Time;durP1;ratioP1;P1;durP2;ratioP2;P2;SDS_P1;SDS_P2;PMS_P1;PMS_P2;Temp;Humidity;BMP_temperature;BMP_pressure;BME280_temperature;BME280_humidity;BME280_pressure;Samples;Min_cycle;Max_cycle;Signal;HPM_P1;HPM_P2
2022/04/06 00:01:11;;;;;;;8.90;6.43;;;11.00;62.60;;;6.83;80.54;95013.78;5054297;28;20032;-49
2022/04/06 00:03:37;;;;;;;8.50;6.15;;;11.10;62.80;;;6.89;80.75;95010.13;5059493;28;20024;-50
2022/04/06 00:06:02;;;;;;;10.18;6.10;;;11.10;62.60;;;6.90;80.64;95009.09;5070847;28;20096;-47
2022/04/06 00:08:34;;;;;;;10.00;6.60;;;11.10;62.60;;;6.94;80.17;95016.25;5071384;28;20024;-49
2022/04/06 00:11:03;;;;;;;8.63;6.05;;;11.10;62.60;;;6.94;80.47;95008.31;5072267;28;20463;-47
2022/04/06 00:13:35;;;;;;;10.65;7.25;;;11.10;62.50;;;6.96;80.33;95005.41;5071383;28;20036;-46
2022/04/06 00:16:04;;;;;;;9.40;6.57;;;11.20;62.70;;;6.98;80.11;95005.16;5041494;28;20039;-48
2022/04/06 00:18:33;;;;;;;9.05;7.10;;;11.20;62.60;;;6.95;80.73;95004.59;5053844;28;20033;-49
2022/04/06 00:20:59;;;;;;;7.75;6.40;;;11.20;62.60;;;6.95;80.87;94998.50;5071286;28;20029;-47
2022/04/06 00:23:25;;;;;;;8.95;6.53;;;11.10;62.50;;;6.87;80.98;94991.84;5054210;28;20021;-47
2022/04/06 00:25:51;;;;;;;12.48;6.93;;;11.10;62.60;;;6.94;80.62;94996.91;5029771;28;20025;-49
2022/04/06 00:28:16;;;;;;;9.85;6.50;;;11.10;62.60;;;6.89;80.75;94992.41;5065658;28;20028;-46
2022/04/06 00:30:45;;;;;;;9.52;6.72;;;11.10;63.50;;;6.89;80.45;94995.06;5053910;28;20392;-51
2022/04/06 00:33:14;;;;;;;8.85;6.10;;;11.00;62.80;;;6.89;80.28;94997.69;5053242;28;20112;-49
2022/04/06 00:35:46;;;;;;;10.68;7.10;;;11.00;62.70;;;6.82;81.00;94997.09;5071612;28;20029;-49
2022/04/06 00:38:14;;;;;;;9.23;6.68;;;11.00;62.80;;;6.83;80.79;94997.91;5053419;28;20028;-47
2022/04/06 00:40:46;;;;;;;12.32;7.90;;;11.00;62.90;;;6.82;80.77;94999.75;5054010;28;20383;-47
2022/04/06 00:43:19;;;;;;;9.57;7.05;;;11.00;63.00;;;6.81;80.55;94997.38;5068573;28;20039;-51
2022/04/06 00:45:47;;;;;;;10.10;6.85;;;11.00;63.00;;;6.76;80.69;94992.81;5036892;23;20056;-54
2022/04/06 00:48:13;;;;;;;10.15;6.75;;;10.90;62.90;;;6.73;81.18;94988.81;5023608;28;20487;-53
2022/04/06 00:50:47;;;;;;;8.77;6.72;;;10.90;62.90;;;6.67;81.14;94983.75;5031357;28;20117;-51
2022/04/06 00:53:19;;;;;;;10.05;6.50;;;10.90;63.00;;;6.72;81.12;94991.75;5032726;28;20096;-52
2022/04/06 00:55:45;;;;;;;8.10;5.90;;;10.90;63.10;;;6.67;81.40;94991.69;5011202;28;20025;-55
2022/04/06 00:58:17;;;;;;;11.05;6.35;;;10.90;63.00;;;6.64;81.18;94989.56;5052345;28;20037;-56
2022/04/06 01:00:46;;;;;;;10.00;6.68;;;10.80;63.00;;;6.64;81.48;94990.38;5035539;28;20037;-56
2022/04/06 01:03:12;;;;;;;10.68;6.65;;;10.80;63.20;;;6.54;82.07;94989.50;5049273;28;20029;-56
2022/04/06 01:05:38;;;;;;;8.77;6.05;;;10.80;63.20;;;6.57;82.06;94994.28;5031907;28;20021;-54
2022/04/06 01:08:04;;;;;;;9.18;6.18;;;10.80;63.30;;;6.57;82.26;94987.13;5040870;28;20083;-51
2022/04/06 01:10:29;;;;;;;8.25;5.57;;;10.80;63.40;;;6.60;81.93;94988.47;5034142;28;20060;-52
2022/04/06 01:12:56;;;;;;;9.13;6.00;;;10.80;63.40;;;6.54;82.39;94984.19;5051563;28;20487;-50
2022/04/06 01:15:23;;;;;;;9.43;5.50;;;10.80;63.50;;;6.57;82.43;94978.41;5051950;28;20115;-48
2022/04/06 01:17:51;;;;;;;9.75;5.47;;;10.70;63.50;;;6.57;82.44;94981.03;5017910;28;20029;-48
2022/04/06 01:20:17;;;;;;;8.07;5.57;;;10.70;63.60;;;6.54;82.55;94982.34;5033267;28;20391;-49
2022/04/06 01:22:43;;;;;;;7.60;5.45;;;10.70;63.60;;;6.54;82.35;94978.91;5017587;28;20039;-52
2022/04/06 01:25:09;;;;;;;8.10;5.72;;;10.70;63.70;;;6.54;82.46;94973.63;5033302;28;20029;-52
2022/04/06 01:27:35;;;;;;;8.13;5.60;;;10.70;63.80;;;6.50;82.24;94970.69;5001365;28;20029;-48
2022/04/06 01:30:08;;;;;;;8.65;5.35;;;10.70;63.80;;;6.51;82.48;94974.13;5017567;28;20511;-51
2022/04/06 01:32:35;;;;;;;8.25;5.78;;;10.60;64.00;;;6.47;82.74;94969.34;5030638;28;20041;-48
2022/04/06 01:35:04;;;;;;;7.50;5.25;;;10.60;63.90;;;6.45;83.10;94974.06;5031816;28;20057;-48
2022/04/06 01:37:34;;;;;;;7.95;5.55;;;10.60;64.10;;;6.43;83.05;94967.47;5018653;28;20029;-50
2022/04/06 01:40:00;;;;;;;7.10;5.30;;;10.60;64.10;;;6.41;82.95;94964.25;5051688;28;20550;-50
2022/04/06 01:42:26;;;;;;;8.57;5.25;;;10.60;64.10;;;6.38;83.50;94967.41;5050443;28;20035;-51
2022/04/06 01:44:58;;;;;;;7.00;5.57;;;10.60;64.10;;;6.38;82.96;94970.84;5039887;28;20034;-52
2022/04/06 01:47:29;;;;;;;8.50;5.65;;;10.60;64.20;;;6.35;83.60;94959.97;5031602;28;20024;-48
2022/04/06 01:52:43;;;;;;;8.98;5.65;;;10.50;64.30;;;6.32;83.46;94957.84;5051519;28;20086;-48
2022/04/06 01:55:13;;;;;;;9.60;6.10;;;10.50;64.20;;;6.31;83.63;94967.63;5016346;28;20029;-53
2022/04/06 01:57:43;;;;;;;7.40;5.53;;;10.50;64.30;;;6.29;83.63;94956.50;5020690;28;20025;-48
2022/04/06 02:00:21;;;;;;;8.43;5.53;;;10.50;64.50;;;6.31;83.59;94954.41;5033887;28;20060;-48
2022/04/06 02:02:52;;;;;;;10.80;6.07;;;10.50;64.70;;;6.25;83.89;94956.19;5050413;28;20071;-50
2022/04/06 02:05:20;;;;;;;7.00;5.50;;;10.50;64.60;;;6.24;83.93;94956.47;5033639;28;20021;-50
2022/04/06 02:07:50;;;;;;;8.65;5.05;;;10.50;64.60;;;6.22;84.17;94945.34;5050356;28;20120;-48
2022/04/06 02:10:17;;;;;;;8.10;5.32;;;10.50;64.70;;;6.21;84.24;94951.69;5032212;28;20082;-51
2022/04/06 02:12:44;;;;;;;8.63;6.45;;;10.40;64.70;;;6.20;84.27;94939.47;5053649;28;20494;-48
2022/04/06 02:15:14;;;;;;;8.90;5.82;;;10.40;64.70;;;6.22;84.12;94946.13;5037260;28;20045;-49
2022/04/06 02:17:42;;;;;;;9.02;6.35;;;10.40;64.90;;;6.23;84.13;94946.91;5055068;28;20036;-48
2022/04/06 02:20:11;;;;;;;8.70;5.70;;;10.40;64.80;;;6.20;84.26;94945.56;5035596;28;20057;-47
2022/04/06 02:22:37;;;;;;;7.30;5.50;;;10.40;65.00;;;6.25;84.05;94940.34;5036910;28;20203;-48
2022/04/06 02:25:04;;;;;;;8.05;5.90;;;10.40;64.90;;;6.30;83.99;94946.69;5054174;28;20115;-50
2022/04/06 02:27:33;;;;;;;8.18;5.50;;;10.50;65.00;;;6.33;83.57;94941.72;5063797;28;20052;-53
2022/04/06 02:29:58;;;;;;;8.27;5.22;;;10.50;65.00;;;6.34;83.62;94940.66;5074733;28;20032;-49
2022/04/06 02:32:36;;;;;;;6.93;5.50;;;10.50;64.90;;;6.36;83.57;94943.03;5033069;28;20025;-48
2022/04/06 02:35:05;;;;;;;6.88;5.13;;;10.50;64.90;;;6.36;83.62;94938.56;5053387;28;20036;-50
2022/04/06 02:37:41;;;;;;;7.13;5.53;;;10.60;64.90;;;6.32;83.89;94934.03;5054248;28;20021;-49
2022/04/06 02:40:10;;;;;;;7.05;5.63;;;10.70;65.00;;;6.35;83.77;94939.59;5020408;28;20052;-52
2022/04/06 02:42:43;;;;;;;7.68;5.45;;;10.60;64.80;;;6.38;83.50;94930.38;5054763;28;20051;-48
2022/04/06 02:45:09;;;;;;;7.30;5.70;;;10.70;64.90;;;6.37;83.50;94932.22;5053048;28;20131;-49
2022/04/06 02:47:36;;;;;;;11.80;5.45;;;10.70;64.80;;;6.43;83.45;94930.41;5054401;28;20021;-50
2022/04/06 02:50:08;;;;;;;7.68;5.35;;;10.70;64.80;;;6.42;83.11;94932.25;5034507;28;20098;-51
2022/04/06 02:52:34;;;;;;;8.82;5.85;;;10.70;65.00;;;6.35;83.45;94915.81;5054221;28;20017;-54
2022/04/06 02:55:00;;;;;;;8.98;5.10;;;10.60;64.80;;;6.39;83.65;94918.72;5035372;28;20024;-52
2022/04/06 02:57:35;;;;;;;6.50;5.18;;;10.60;64.90;;;6.40;83.17;94915.06;5039817;28;20021;-51
2022/04/06 03:00:05;;;;;;;7.65;5.22;;;10.60;65.20;;;6.38;83.17;94907.34;5036874;28;20045;-52
2022/04/06 03:02:34;;;;;;;6.18;4.50;;;10.60;65.10;;;6.34;83.24;94901.00;5028832;28;20079;-49
2022/04/06 03:04:59;;;;;;;6.97;5.03;;;10.50;65.00;;;6.36;82.81;94901.53;5029801;28;20033;-51
2022/04/06 03:07:25;;;;;;;8.20;5.05;;;10.50;65.10;;;6.33;83.29;94899.41;5053056;28;20033;-50
2022/04/06 03:09:51;;;;;;;7.85;4.90;;;10.50;65.10;;;6.31;83.26;94890.13;5019875;28;20057;-51
2022/04/06 03:12:23;;;;;;;6.53;4.75;;;10.50;65.10;;;6.29;83.26;94887.72;5036527;28;20082;-48
2022/04/06 03:14:51;;;;;;;7.55;5.38;;;10.50;65.30;;;6.28;83.02;94888.00;5052798;28;20112;-51
2022/04/06 03:17:17;;;;;;;7.47;5.53;;;10.50;65.30;;;6.23;83.69;94896.66;5054107;28;20526;-50
2022/04/06 03:19:44;;;;;;;6.70;5.28;;;10.40;65.20;;;6.20;83.38;94883.94;5035090;28;20476;-48
2022/04/06 03:22:16;;;;;;;7.65;5.25;;;10.40;65.20;;;6.19;83.18;94880.50;5053802;28;20052;-49
2022/04/06 03:24:45;;;;;;;7.03;5.07;;;10.40;65.80;;;6.17;83.19;94880.00;5053865;28;20025;-49
2022/04/06 03:27:11;;;;;;;7.25;5.00;;;10.30;65.20;;;6.10;83.89;94879.38;5033967;28;20290;-48
2022/04/06 03:29:45;;;;;;;7.18;5.30;;;10.30;65.30;;;6.10;83.82;94876.75;5036055;28;20029;-48
2022/04/06 03:32:14;;;;;;;6.28;5.40;;;10.30;65.50;;;6.08;83.95;94881.50;5053028;28;20083;-48
2022/04/06 03:34:45;;;;;;;8.73;5.18;;;10.30;65.50;;;6.03;83.99;94879.59;5053487;28;20455;-48
2022/04/06 03:37:11;;;;;;;8.20;5.05;;;10.20;65.50;;;6.04;84.12;94880.41;5034615;28;20065;-51
2022/04/06 03:39:39;;;;;;;8.43;4.97;;;10.20;65.50;;;6.00;84.14;94874.81;5053671;28;20059;-48
2022/04/06 03:42:05;;;;;;;7.47;5.07;;;10.20;65.60;;;5.97;84.50;94877.97;5035614;28;20032;-49
2022/04/06 03:44:31;;;;;;;7.38;4.82;;;10.20;65.70;;;5.97;84.63;94880.59;5030843;28;20435;-49
2022/04/06 03:46:59;;;;;;;7.90;5.75;;;10.20;65.70;;;5.97;84.58;94872.69;5043899;28;20128;-48
2022/04/06 03:49:25;;;;;;;9.40;5.30;;;10.20;65.80;;;5.95;84.56;94866.84;5052546;28;20033;-48
2022/04/06 03:51:54;;;;;;;10.48;5.53;;;10.20;65.80;;;5.94;84.91;94872.38;5035599;28;20047;-49
2022/04/06 03:54:22;;;;;;;9.43;5.13;;;10.10;65.80;;;5.90;84.92;94863.34;5035587;28;20029;-51
2022/04/06 03:56:48;;;;;;;7.68;5.03;;;10.10;65.90;;;5.94;84.76;94867.91;5020845;28;20025;-49
2022/04/06 03:59:14;;;;;;;9.02;5.25;;;10.20;65.90;;;5.93;84.54;94862.88;5052817;28;20487;-48
2022/04/06 04:01:43;;;;;;;8.43;5.22;;;10.10;65.90;;;5.92;84.69;94867.34;5052110;28;20060;-50
2022/04/06 04:04:14;;;;;;;6.82;5.35;;;10.10;66.00;;;5.86;85.12;94859.59;5035309;28;20058;-49
2022/04/06 04:06:44;;;;;;;6.10;4.78;;;10.10;66.10;;;5.92;84.88;94863.88;5018760;28;20451;-49
2022/04/06 04:09:10;;;;;;;7.03;5.22;;;10.10;66.00;;;5.91;84.61;94857.00;5052585;28;20029;-48
2022/04/06 04:11:35;;;;;;;7.63;5.20;;;10.10;66.10;;;5.89;85.20;94862.56;5052965;28;20112;-49
2022/04/06 04:14:01;;;;;;;9.27;5.70;;;10.10;66.20;;;5.89;84.75;94857.28;5051901;28;20032;-48
2022/04/06 04:16:27;;;;;;;8.27;5.85;;;10.10;66.20;;;5.90;85.46;94861.50;5021565;28;20555;-49
2022/04/06 04:18:53;;;;;;;6.63;5.10;;;10.10;66.30;;;5.91;85.15;94854.34;5052924;28;20089;-49
2022/04/06 04:21:34;;;;;;;7.10;5.55;;;10.10;66.30;;;5.89;85.31;94851.97;5020737;28;20030;-50
2022/04/06 04:24:05;;;;;;;7.85;5.30;;;10.10;66.30;;;5.92;84.91;94848.84;5052696;28;20036;-52
2022/04/06 04:26:36;;;;;;;6.40;4.90;;;10.10;66.30;;;5.94;84.66;94848.59;5034079;28;20061;-48
2022/04/06 04:29:07;;;;;;;7.50;5.00;;;10.10;66.40;;;5.91;84.86;94847.22;5052764;28;20025;-51
2022/04/06 04:31:36;;;;;;;8.35;5.30;;;10.10;66.40;;;5.91;85.05;94847.22;5014115;28;20437;-49
2022/04/06 04:34:03;;;;;;;10.90;5.50;;;10.10;66.40;;;5.90;85.36;94847.50;5026796;28;20060;-48
2022/04/06 04:36:29;;;;;;;5.90;4.57;;;10.10;67.10;;;5.91;85.47;94846.44;5034796;28;20421;-48
2022/04/06 04:38:55;;;;;;;8.65;5.32;;;10.10;66.40;;;5.89;85.29;94838.78;5051145;28;20077;-51
2022/04/06 04:41:24;;;;;;;8.65;5.72;;;10.10;66.50;;;5.92;85.16;94848.00;5052432;28;20043;-50
2022/04/06 04:43:50;;;;;;;6.82;5.20;;;10.10;66.50;;;5.89;85.52;94840.59;5012888;28;20036;-50
2022/04/06 04:46:20;;;;;;;7.95;4.97;;;10.10;66.50;;;5.88;85.65;94834.50;5033804;28;20040;-50
2022/04/06 04:48:47;;;;;;;7.93;4.68;;;10.10;66.60;;;5.88;85.17;94839.00;5025041;28;20339;-48
2022/04/06 04:51:13;;;;;;;8.32;5.40;;;10.10;66.50;;;5.88;85.16;94833.72;5032711;28;20040;-51
2022/04/06 04:53:39;;;;;;;7.30;5.40;;;10.10;66.60;;;5.83;85.64;94836.31;5033995;28;20040;-50
2022/04/06 04:56:06;;;;;;;7.45;5.40;;;10.10;66.60;;;5.87;85.50;94834.78;5029014;28;20033;-50
2022/04/06 04:58:31;;;;;;;8.38;5.57;;;10.10;66.60;;;5.86;85.37;94838.44;5045490;28;20108;-52
2022/04/06 05:00:57;;;;;;;7.18;5.35;;;10.10;66.60;;;5.86;85.48;94833.16;5033723;28;20104;-49
2022/04/06 05:03:32;;;;;;;10.50;5.50;;;10.10;66.60;;;5.86;85.31;94833.97;5033839;28;20029;-49
2022/04/06 05:05:58;;;;;;;7.85;5.70;;;10.10;66.80;;;5.85;85.63;94832.38;5032024;28;20033;-52
2022/04/06 05:08:30;;;;;;;7.95;5.32;;;10.10;66.70;;;5.87;85.32;94834.78;5042467;28;20052;-49
2022/04/06 05:10:58;;;;;;;7.55;5.47;;;10.10;66.80;;;5.87;85.29;94832.13;5051976;28;20025;-50
2022/04/06 05:13:24;;;;;;;8.48;5.53;;;10.10;66.90;;;5.87;85.53;94835.56;5033224;28;20032;-50
2022/04/06 05:15:50;;;;;;;7.97;5.53;;;10.10;66.70;;;5.85;85.88;94829.72;5042914;28;20021;-49
2022/04/06 05:18:22;;;;;;;8.50;5.18;;;10.10;66.90;;;5.86;85.96;94835.81;5033959;28;20036;-51
2022/04/06 05:20:53;;;;;;;8.30;5.07;;;10.10;66.90;;;5.85;85.88;94828.94;5045055;28;20079;-51
2022/04/06 05:23:27;;;;;;;7.82;5.70;;;10.10;66.90;;;5.91;85.82;94833.22;5034279;28;20017;-50
2022/04/06 05:25:53;;;;;;;5.63;4.75;;;10.20;67.00;;;5.90;85.45;94836.91;5050836;28;20492;-50
2022/04/06 05:28:19;;;;;;;7.22;4.80;;;10.20;67.60;;;5.92;85.88;94832.16;5033784;28;20036;-48
2022/04/06 05:30:53;;;;;;;7.95;5.45;;;10.20;66.90;;;5.97;85.48;94827.75;5051730;28;20360;-48
2022/04/06 05:33:19;;;;;;;8.07;5.10;;;10.30;67.00;;;6.01;85.49;94823.53;5026644;28;20044;-49
2022/04/06 05:35:47;;;;;;;6.40;5.03;;;10.30;66.80;;;6.01;85.33;94826.16;5026118;28;20029;-50
2022/04/06 05:38:19;;;;;;;6.55;4.95;;;10.40;66.90;;;6.01;85.58;94833.31;5033371;28;20404;-48
2022/04/06 05:40:45;;;;;;;5.97;5.07;;;10.50;66.90;;;6.07;85.62;94828.84;5017335;28;20025;-52
2022/04/06 05:43:11;;;;;;;6.88;4.93;;;10.50;66.80;;;6.14;85.47;94837.34;5051242;28;20031;-50
2022/04/06 05:45:36;;;;;;;7.50;5.15;;;10.60;66.70;;;6.22;85.15;94836.91;5043202;28;20522;-52
2022/04/06 05:48:05;;;;;;;7.18;4.78;;;10.70;66.70;;;6.28;85.09;94837.72;4984506;28;20036;-50
2022/04/06 05:50:33;;;;;;;6.97;4.22;;;10.80;66.70;;;6.37;85.09;94831.69;5026930;28;20083;-49
2022/04/06 05:52:58;;;;;;;7.40;4.20;;;10.90;66.50;;;6.45;84.72;94838.34;5029840;28;20247;-49
2022/04/06 05:55:24;;;;;;;4.68;4.05;;;11.00;66.40;;;6.56;84.74;94842.66;5008256;28;20065;-52
2022/04/06 05:57:52;;;;;;;5.38;3.90;;;11.10;66.30;;;6.67;84.68;94846.94;5002357;28;20087;-50
2022/04/06 06:00:18;;;;;;;4.70;4.05;;;11.30;66.20;;;6.76;84.30;94843.81;5033358;28;20065;-52
2022/04/06 06:02:45;;;;;;;5.70;4.00;;;11.40;66.10;;;6.86;84.15;94839.34;5016218;28;20078;-49
2022/04/06 06:05:11;;;;;;;5.15;3.40;;;11.60;66.00;;;6.94;83.10;94838.06;5017996;28;20031;-51
2022/04/06 06:07:37;;;;;;;5.60;3.63;;;11.70;65.70;;;7.05;82.67;94833.56;5017088;28;20014;-49
2022/04/06 06:10:06;;;;;;;4.03;3.20;;;11.80;65.30;;;7.18;82.46;94835.75;5035563;28;20071;-49
2022/04/06 06:12:32;;;;;;;4.07;3.42;;;12.00;65.20;;;7.29;81.82;94832.06;5030511;28;20079;-53
2022/04/06 06:14:58;;;;;;;4.13;3.30;;;12.10;64.90;;;7.39;80.87;94839.22;5018405;28;20037;-49
2022/04/06 06:17:23;;;;;;;5.03;2.88;;;12.30;64.70;;;7.52;80.94;94840.56;5033653;28;20020;-49
2022/04/06 06:19:49;;;;;;;4.60;3.53;;;12.40;64.30;;;7.64;80.09;94833.16;5048428;28;20033;-50
2022/04/06 06:22:15;;;;;;;7.90;3.60;;;12.60;64.10;;;7.80;79.86;94833.97;5036093;28;20025;-50
2022/04/06 06:24:44;;;;;;;8.88;3.40;;;12.80;64.00;;;8.01;79.60;94834.78;5047465;28;20391;-48
2022/04/06 06:27:09;;;;;;;6.43;3.22;;;13.00;63.70;;;8.18;78.38;94835.31;5049952;28;20021;-53
2022/04/06 06:29:35;;;;;;;10.65;3.38;;;13.30;63.30;;;8.38;77.86;94833.69;5037835;28;20032;-49
2022/04/06 06:32:07;;;;;;;8.48;2.80;;;13.50;63.00;;;8.57;76.43;94830.22;5034209;28;20036;-50
2022/04/06 06:34:32;;;;;;;6.20;3.05;;;13.80;62.40;;;8.79;75.39;94829.09;5054784;28;20082;-48
2022/04/06 06:36:58;;;;;;;3.30;2.85;;;14.10;61.90;;;8.99;74.79;94836.97;5049401;28;20436;-55
2022/04/06 06:39:27;;;;;;;5.22;3.17;;;14.30;61.30;;;9.07;73.43;94840.13;5048760;28;20033;-55
2022/04/06 06:42:06;;;;;;;2.80;2.40;;;14.50;60.70;;;9.18;72.72;94834.50;5042271;28;20294;-50
2022/04/06 06:44:35;;;;;;;4.20;2.70;;;14.70;60.10;;;9.34;72.15;94835.22;5031440;28;20017;-49
2022/04/06 06:47:01;;;;;;;4.43;2.45;;;14.90;59.50;;;9.52;71.83;94839.09;5012687;28;20190;-50
2022/04/06 06:49:27;;;;;;;2.95;2.30;;;15.10;59.30;;;9.63;70.50;94840.63;5051419;28;20379;-50
2022/04/06 06:51:53;;;;;;;2.90;2.55;;;15.30;58.80;;;9.76;70.63;94849.06;5009111;28;20021;-50
2022/04/06 06:54:19;;;;;;;2.80;2.38;;;15.40;58.40;;;9.80;70.44;94845.53;5035833;28;20035;-49
2022/04/06 06:56:45;;;;;;;2.67;2.22;;;15.50;58.10;;;9.95;69.79;94852.63;5050105;28;20395;-48
2022/04/06 06:59:10;;;;;;;3.05;2.40;;;15.70;57.80;;;10.06;69.09;94840.03;5035581;28;20040;-49
2022/04/06 07:01:38;;;;;;;6.35;2.35;;;15.80;57.30;;;10.24;69.18;94841.22;5048522;28;20029;-48
2022/04/06 07:04:04;;;;;;;3.55;2.63;;;16.00;57.10;;;10.39;67.65;94833.13;5050782;28;20036;-49
2022/04/06 07:06:36;;;;;;;4.65;2.50;;;16.20;56.70;;;10.49;66.97;94842.88;5026229;28;20025;-50
2022/04/06 07:09:02;;;;;;;4.40;2.42;;;16.40;56.20;;;10.54;67.42;94834.84;5026882;28;20040;-50
2022/04/06 07:11:31;;;;;;;3.22;2.20;;;16.60;55.90;;;10.67;66.14;94838.72;5042401;28;20045;-49
2022/04/06 07:13:56;;;;;;;5.10;2.75;;;16.70;55.50;;;10.84;65.43;94836.38;5049215;28;20036;-48
2022/04/06 07:16:27;;;;;;;6.10;3.00;;;16.90;55.10;;;10.93;65.59;94836.53;5050567;28;20032;-49
2022/04/06 07:18:55;;;;;;;3.95;2.90;;;17.10;54.70;;;11.01;64.87;94831.38;5049680;28;20120;-48
2022/04/06 07:21:21;;;;;;;5.95;2.90;;;17.30;54.30;;;11.11;64.95;94833.91;5049483;28;20041;-48
2022/04/06 07:23:47;;;;;;;4.80;3.28;;;17.40;53.90;;;11.21;64.70;94825.00;5033991;28;20025;-50
2022/04/06 07:26:19;;;;;;;3.55;3.05;;;17.70;53.60;;;11.44;64.00;94822.56;5037314;28;20033;-49
2022/04/06 07:28:47;;;;;;;3.83;3.37;;;17.80;53.00;;;11.66;62.41;94830.81;5025174;28;20044;-48
2022/04/06 07:31:14;;;;;;;6.32;3.47;;;18.00;52.80;;;11.76;61.52;94827.19;5032977;28;20125;-48
2022/04/06 07:33:42;;;;;;;4.43;3.83;;;18.30;52.20;;;11.67;61.77;94823.59;5035327;28;20484;-48
2022/04/06 07:36:08;;;;;;;6.10;4.45;;;18.50;51.40;;;11.89;60.61;94831.03;5040087;28;20065;-48
2022/04/06 07:38:43;;;;;;;6.40;3.85;;;18.60;50.90;;;12.22;60.75;94816.59;5052982;28;20432;-48
2022/04/06 07:41:09;;;;;;;4.93;4.43;;;18.90;50.40;;;12.38;60.79;94811.78;5035677;28;20072;-48
2022/04/06 07:43:35;;;;;;;7.20;4.50;;;19.20;50.10;;;12.47;60.43;94818.03;5051984;28;20064;-49
2022/04/06 07:46:07;;;;;;;6.53;4.20;;;19.40;49.80;;;12.74;59.94;94816.47;5041098;28;20049;-48
2022/04/06 07:48:33;;;;;;;5.78;4.07;;;19.70;49.30;;;12.76;59.14;94813.53;5033375;28;20048;-50
2022/04/06 07:50:59;;;;;;;6.78;4.60;;;19.90;48.70;;;12.78;58.26;94803.31;5032009;28;20488;-49
2022/04/06 07:53:28;;;;;;;5.68;4.45;;;20.10;48.10;;;13.01;58.11;94820.25;5033574;28;20522;-48
2022/04/06 07:55:54;;;;;;;4.97;4.25;;;20.20;47.50;;;12.98;57.74;94815.50;5032107;28;20600;-48
2022/04/06 07:58:20;;;;;;;8.82;4.43;;;20.40;46.70;;;13.07;58.27;94814.50;5017612;28;20173;-52
2022/04/06 08:00:46;;;;;;;7.97;4.40;;;20.50;46.50;;;13.12;57.93;94810.91;5013858;28;20044;-48
2022/04/06 08:03:12;;;;;;;5.32;4.65;;;20.70;46.00;;;13.35;57.05;94812.63;5023300;28;20033;-50
2022/04/06 08:05:38;;;;;;;5.90;4.03;;;20.80;45.70;;;13.59;57.42;94801.63;5024085;28;20022;-48
2022/04/06 08:08:04;;;;;;;6.18;4.32;;;21.00;45.10;;;13.70;56.05;94798.75;5009706;28;20487;-51
2022/04/06 08:10:30;;;;;;;6.65;5.00;;;21.20;44.80;;;13.62;56.12;94801.03;5024608;28;20030;-49
2022/04/06 08:12:56;;;;;;;5.88;4.47;;;21.40;44.50;;;13.90;56.73;94803.63;5026187;28;20056;-48
2022/04/06 08:15:22;;;;;;;7.30;4.13;;;21.50;44.20;;;14.22;53.67;94802.56;5007734;28;20033;-48
2022/04/06 08:17:49;;;;;;;6.78;4.43;;;21.90;43.90;;;14.39;53.46;94803.78;5000701;28;20047;-49
2022/04/06 08:20:17;;;;;;;5.53;4.15;;;22.20;42.90;;;14.68;53.82;94806.00;5011454;28;20067;-49
2022/04/06 08:22:52;;;;;;;8.65;4.25;;;22.40;42.50;;;14.71;51.76;94803.47;5045494;28;20021;-48
2022/04/06 08:25:27;;;;;;;5.03;3.78;;;22.60;41.70;;;14.62;51.66;94802.66;5006490;28;20074;-48
2022/04/06 08:27:55;;;;;;;5.57;4.10;;;22.70;41.30;;;14.39;52.25;94801.88;5022618;28;20025;-48
2022/04/06 08:30:22;;;;;;;5.28;3.88;;;22.50;40.50;;;14.52;52.29;94806.41;5026658;28;20057;-48
2022/04/06 08:32:51;;;;;;;7.20;3.92;;;22.30;40.50;;;14.23;52.86;94806.06;5025925;28;20026;-48
2022/04/06 08:35:22;;;;;;;10.98;4.35;;;22.10;40.50;;;14.47;53.93;94806.47;5021069;28;20492;-54
2022/04/06 08:37:48;;;;;;;9.77;4.85;;;22.00;41.00;;;14.56;53.64;94799.31;5021196;28;20037;-53
2022/04/06 08:40:15;;;;;;;5.80;4.88;;;21.90;41.20;;;14.56;53.78;94801.19;5023637;28;20025;-53
2022/04/06 08:42:41;;;;;;;9.52;4.93;;;21.90;41.40;;;14.79;53.40;94809.97;5018158;28;20051;-53
2022/04/06 08:45:08;;;;;;;7.07;5.75;;;22.20;41.40;;;15.32;51.88;94798.28;5033704;28;20053;-52
2022/04/06 08:47:37;;;;;;;6.78;5.38;;;22.80;41.40;;;15.69;50.79;94801.53;5030959;28;20040;-53
2022/04/06 08:50:05;;;;;;;6.18;5.50;;;23.60;40.70;;;16.01;50.35;94797.56;5031275;28;20026;-50
2022/04/06 08:52:45;;;;;;;8.43;5.63;;;24.40;39.80;;;16.57;48.33;94792.22;5030912;28;20040;-55
2022/04/06 08:55:12;;;;;;;7.03;5.32;;;25.30;38.70;;;17.03;47.02;94801.41;5029695;28;20579;-52
2022/04/06 08:57:41;;;;;;;12.10;5.47;;;26.10;38.10;;;17.42;46.37;94794.06;5031246;28;20025;-52
2022/04/06 09:00:07;;;;;;;5.78;4.00;;;26.90;36.90;;;18.11;44.76;94785.47;5032417;28;20033;-53
2022/04/06 09:02:36;;;;;;;5.20;4.43;;;27.70;35.70;;;18.64;43.13;94794.59;5031706;28;20033;-51
2022/04/06 09:05:05;;;;;;;6.25;4.07;;;28.30;34.10;;;19.23;41.29;94782.66;5032479;28;20030;-53
2022/04/06 09:07:34;;;;;;;6.22;4.43;;;28.80;32.60;;;19.36;40.59;94791.53;5026486;28;20522;-56
2022/04/06 09:10:00;;;;;;;5.28;4.78;;;29.10;31.80;;;19.25;41.13;94785.03;5022294;28;20057;-56
2022/04/06 09:12:26;;;;;;;9.18;4.85;;;29.40;31.20;;;18.84;41.70;94782.19;5028705;28;20041;-56
2022/04/06 09:15:12;;;;;;;7.50;5.35;;;29.40;30.80;;;18.81;42.00;94772.09;5027554;28;20037;-55
2022/04/06 09:17:49;;;;;;;5.82;4.78;;;29.30;30.10;;;19.27;41.02;94778.13;5027397;28;20099;-55
2022/04/06 09:20:24;;;;;;;6.00;5.43;;;29.30;30.10;;;19.77;40.72;94771.53;5033415;28;20048;-55
2022/04/06 09:22:53;;;;;;;6.55;4.80;;;29.40;30.10;;;19.68;40.51;94760.13;5034453;28;20550;-54
2022/04/06 09:25:22;;;;;;;4.90;4.45;;;29.20;30.00;;;19.45;40.00;94767.88;5022001;28;20056;-56
2022/04/06 09:27:48;;;;;;;5.65;4.63;;;29.00;29.70;;;19.27;41.35;94769.25;5027447;28;20503;-55
2022/04/06 09:30:13;;;;;;;6.82;4.68;;;29.20;29.70;;;19.84;40.60;94770.97;5029128;28;20029;-54
2022/04/06 09:32:41;;;;;;;7.05;5.15;;;29.50;29.60;;;19.99;40.10;94764.03;5027582;28;20057;-54
2022/04/06 09:35:26;;;;;;;6.57;5.03;;;29.90;29.30;;;20.29;39.70;94761.78;5023666;28;20033;-54
2022/04/06 09:38:12;;;;;;;6.25;5.50;;;30.40;29.10;;;20.13;40.09;94750.16;5040267;28;20104;-56
2022/04/06 09:40:45;;;;;;;8.13;5.28;;;30.80;28.60;;;20.38;39.40;94753.50;5028781;28;20030;-54
2022/04/06 09:43:47;;;;;;;6.32;5.63;;;31.00;28.30;;;19.90;40.37;94748.00;5028972;28;20033;-54
2022/04/06 09:49:24;;;;;;;12.32;5.80;;;31.40;27.50;;;20.58;39.03;94738.97;5035685;28;20040;-56
2022/04/06 09:51:51;;;;;;;5.75;5.15;;;31.60;27.40;;;20.62;37.77;94729.06;5028094;28;20087;-55
2022/04/06 09:54:18;;;;;;;6.82;5.45;;;31.70;26.90;;;20.93;37.99;94730.16;5031083;28;20033;-57
2022/04/06 09:56:44;;;;;;;5.65;5.15;;;31.90;26.50;;;21.36;35.92;94728.44;5030077;28;20029;-53
2022/04/06 09:59:13;;;;;;;6.47;5.63;;;32.10;26.50;;;21.58;35.44;94726.97;4977368;28;20037;-53
2022/04/06 10:01:45;;;;;;;6.15;5.65;;;32.30;26.20;;;21.47;36.13;94718.66;5013313;28;20029;-55
2022/04/06 10:04:12;;;;;;;8.48;5.65;;;32.50;25.80;;;20.80;37.11;94722.13;5020059;28;20083;-56
2022/04/06 10:06:42;;;;;;;7.18;5.82;;;32.60;25.30;;;21.25;36.26;94718.16;5014042;28;20191;-55
2022/04/06 10:09:28;;;;;;;6.97;6.28;;;32.70;25.30;;;21.80;35.64;94714.66;5012333;28;20095;-54
2022/04/06 10:11:57;;;;;;;8.77;6.28;;;32.90;25.10;;;22.01;34.85;94709.66;5001649;28;20049;-57
2022/04/06 10:14:24;;;;;;;6.93;5.78;;;33.00;25.00;;;22.00;35.23;94710.00;5009521;28;20041;-57
2022/04/06 10:16:50;;;;;;;9.57;5.90;;;33.20;25.00;;;22.19;35.56;94707.31;5002519;28;20059;-56
2022/04/06 10:19:22;;;;;;;7.45;5.60;;;33.40;24.80;;;22.66;34.15;94700.75;5027787;28;20648;-53
2022/04/06 10:22:28;;;;;;;8.13;5.32;;;33.60;24.70;;;22.97;33.13;94699.75;4994084;28;20040;-58
2022/04/06 10:25:27;;;;;;;8.65;5.43;;;33.90;24.50;;;23.04;33.77;94697.13;5009474;28;20057;-56
2022/04/06 10:27:57;;;;;;;6.07;5.47;;;34.30;24.40;;;23.35;33.96;94683.56;5030867;28;20512;-56
2022/04/06 10:33:34;;;;;;;6.07;5.47;;;34.90;23.70;;;22.85;33.43;94675.47;5011683;28;20040;-56
2022/04/06 10:36:30;;;;;;;6.03;4.87;;;35.10;23.20;;;23.01;33.29;94667.97;5013504;28;20189;-57
2022/04/06 10:39:09;;;;;;;5.63;5.13;;;35.10;22.90;;;22.80;32.70;94665.69;4946411;28;20382;-56